Time;durP1;ratioP1;P1;durP2;ratioP2;P2;SDS_P1;SDS_P2;PMS_P1;PMS_P2;Temp;Humidity;BMP_temperature;BMP_pressure;BME280_temperature;BME280_humidity;BME280_pressure;Samples;Min_cycle;Max_cycle;Signal;HPM_P1;HPM_P2
2023/08/14 00:01:01;;;;;;;1.80;1.17;;;21.30;86.10;;;;;;5072598;28;20585;-31
2023/08/14 00:03:28;;;;;;;1.73;1.30;;;21.90;86.20;;;;;;5072560;28;20084;-33
2023/08/14 00:05:55;;;;;;;1.50;1.08;;;;;;;;;;5072506;28;20464;-33
2023/08/14 00:08:22;;;;;;;1.95;1.35;;;;;;;;;;5072871;28;20083;-31
2023/08/14 00:10:49;;;;;;;1.55;1.10;;;;;;;;;;5067572;28;20156;-32
2023/08/14 00:13:19;;;;;;;1.83;1.20;;;21.20;85.40;;;;;;5052418;28;20127;-31
2023/08/14 00:15:46;;;;;;;1.73;1.23;;;21.70;86.30;;;;;;5052504;28;20144;-31
2023/08/14 00:18:13;;;;;;;1.58;1.10;;;21.30;74.30;;;;;;5052753;28;20145;-31
2023/08/14 00:20:40;;;;;;;1.60;1.20;;;21.50;85.80;;;;;;5052449;28;20131;-31
2023/08/14 00:23:06;;;;;;;1.65;1.27;;;21.50;86.10;;;;;;5052285;28;20140;-30
2023/08/14 00:25:33;;;;;;;1.27;1.10;;;;;;;;;;5052295;28;20555;-32
2023/08/14 00:28:00;;;;;;;1.20;1.10;;;20.70;85.30;;;;;;5068356;28;20124;-30
2023/08/14 00:30:28;;;;;;;1.88;1.30;;;20.40;85.30;;;;;;5071903;28;20131;-31
2023/08/14 00:32:55;;;;;;;3.13;1.30;;;;;;;;;;5072189;28;20135;-33
2023/08/14 00:35:22;;;;;;;1.42;1.17;;;21.30;85.90;;;;;;5072556;28;20131;-30
2023/08/14 00:37:50;;;;;;;2.15;1.20;;;21.10;86.40;;;;;;5071900;28;20123;-30
2023/08/14 00:40:17;;;;;;;1.50;1.20;;;22.10;87.00;;;;;;5071961;28;20522;-31
2023/08/14 00:42:45;;;;;;;1.75;1.20;;;21.10;72.10;;;;;;5072159;28;20052;-34
2023/08/14 00:45:12;;;;;;;1.27;1.17;;;22.70;86.30;;;;;;5071795;28;20057;-31
2023/08/14 00:47:40;;;;;;;1.52;1.25;;;21.10;70.10;;;;;;5072078;28;20135;-30
2023/08/14 00:50:08;;;;;;;1.20;1.10;;;21.80;86.20;;;;;;5072101;28;20136;-30
2023/08/14 00:52:36;;;;;;;1.15;1.05;;;21.40;69.20;;;;;;5071866;28;20134;-30
2023/08/14 00:55:03;;;;;;;3.40;1.10;;;21.30;85.30;;;;;;5072008;28;20565;-31
2023/08/14 00:57:30;;;;;;;2.15;1.10;;;21.00;70.20;;;;;;5071794;28;20040;-33
2023/08/14 00:59:57;;;;;;;1.25;1.10;;;22.60;85.80;;;;;;5072146;28;20052;-31
2023/08/14 01:02:24;;;;;;;1.70;1.20;;;21.30;86.20;;;;;;5070990;28;20072;-31
2023/08/14 01:04:52;;;;;;;1.60;1.10;;;21.40;69.10;;;;;;5072255;28;20072;-30
2023/08/14 01:07:19;;;;;;;1.00;0.90;;;21.00;85.20;;;;;;5071789;28;20054;-30
2023/08/14 01:09:46;;;;;;;1.13;1.00;;;21.80;86.40;;;;;;5071948;28;20135;-32
2023/08/14 01:12:16;;;;;;;1.50;1.10;;;21.00;73.60;;;;;;5071751;28;20131;-32
2023/08/14 01:14:43;;;;;;;1.02;0.93;;;21.10;85.50;;;;;;5065856;28;20128;-30
2023/08/14 01:17:11;;;;;;;1.55;1.00;;;22.20;86.90;;;;;;5061730;28;20456;-31
2023/08/14 01:19:40;;;;;;;1.02;0.93;;;22.50;86.20;;;;;;5060088;28;20087;-30
2023/08/14 01:22:11;;;;;;;1.40;1.00;;;21.40;69.00;;;;;;5060692;28;20528;-35
2023/08/14 01:24:46;;;;;;;1.48;1.10;;;21.80;85.70;;;;;;5066902;28;20131;-30
2023/08/14 01:27:14;;;;;;;0.90;0.90;;;21.10;71.20;;;;;;5066116;28;20045;-32
2023/08/14 01:29:42;;;;;;;1.42;1.00;;;;;;;;;;5064447;28;20124;-33
2023/08/14 01:32:09;;;;;;;1.15;1.00;;;22.10;86.10;;;;;;5065376;28;20429;-30
2023/08/14 01:34:35;;;;;;;0.95;0.90;;;22.60;79.80;;;;;;5061682;28;20128;-31
2023/08/14 01:37:05;;;;;;;0.95;0.93;;;21.90;85.30;;;;;;5062953;28;20449;-30
2023/08/14 01:39:35;;;;;;;1.25;0.95;;;22.00;85.30;;;;;;5065516;28;20123;-30
2023/08/14 01:42:05;;;;;;;1.48;0.90;;;21.00;86.00;;;;;;5066185;28;20476;-31
2023/08/14 01:44:34;;;;;;;1.00;0.90;;;21.20;85.30;;;;;;5055901;28;20497;-31
2023/08/14 01:47:00;;;;;;;1.75;1.02;;;21.60;85.40;;;;;;5056230;28;20409;-30
2023/08/14 01:49:28;;;;;;;1.05;0.80;;;21.30;85.20;;;;;;5055535;28;20128;-30
2023/08/14 01:51:55;;;;;;;2.65;1.10;;;22.20;85.00;;;;;;5055368;28;20196;-30
2023/08/14 01:54:21;;;;;;;1.02;0.80;;;21.70;85.90;;;;;;5055128;28;20136;-31
2023/08/14 01:56:48;;;;;;;1.38;0.80;;;21.30;77.70;;;;;;5055289;28;20504;-34
2023/08/14 01:59:15;;;;;;;1.30;1.10;;;21.60;85.50;;;;;;5061339;28;20119;-31
2023/08/14 02:01:43;;;;;;;1.10;0.90;;;21.40;85.00;;;;;;5060037;28;20461;-31
2023/08/14 02:04:09;;;;;;;0.80;0.80;;;21.30;80.20;;;;;;5074696;28;20083;-30
2023/08/14 02:06:36;;;;;;;1.00;0.80;;;;;;;;;;5074889;28;20131;-34
2023/08/14 02:09:03;;;;;;;1.05;0.95;;;21.40;85.80;;;;;;5074799;28;20131;-32
2023/08/14 02:11:30;;;;;;;1.13;0.93;;;;;;;;;;5074902;28;20052;-35
2023/08/14 02:13:57;;;;;;;2.55;0.95;;;22.40;86.00;;;;;;5074737;28;20135;-31
2023/08/14 02:16:24;;;;;;;1.50;0.90;;;21.40;85.40;;;;;;5072706;28;20639;-30
2023/08/14 02:18:52;;;;;;;0.82;0.77;;;22.20;75.80;;;;;;5054686;28;20135;-31
2023/08/14 02:21:19;;;;;;;0.93;0.88;;;21.10;73.50;;;;;;5067634;28;20163;-33
2023/08/14 02:23:45;;;;;;;1.33;0.90;;;22.20;86.20;;;;;;5056205;28;20138;-31
2023/08/14 02:26:12;;;;;;;1.08;0.90;;;22.00;86.50;;;;;;5054762;28;20148;-32
2023/08/14 02:28:39;;;;;;;1.10;1.00;;;;;;;;;;5054413;28;20139;-35
2023/08/14 02:31:06;;;;;;;1.00;0.90;;;21.60;85.70;;;;;;5054394;28;20137;-32
2023/08/14 02:33:32;;;;;;;1.33;1.23;;;20.80;85.30;;;;;;5055356;28;20658;-31
2023/08/14 02:36:01;;;;;;;1.25;1.02;;;21.40;75.50;;;;;;5055451;28;20132;-31
2023/08/14 02:38:30;;;;;;;0.95;0.90;;;21.20;78.30;;;;;;5074367;28;20079;-31
2023/08/14 02:40:56;;;;;;;1.30;1.00;;;21.30;77.20;;;;;;5074191;28;20044;-32
2023/08/14 02:43:24;;;;;;;1.10;1.00;;;;;;;;;;5074120;28;20135;-33
2023/08/14 02:45:50;;;;;;;0.80;0.80;;;21.20;85.70;;;;;;5074228;28;20131;-31
2023/08/14 02:48:17;;;;;;;1.05;0.85;;;21.00;85.10;;;;;;5074224;28;20147;-32
2023/08/14 02:50:44;;;;;;;1.10;1.00;;;22.30;77.20;;;;;;5073207;28;20120;-31
2023/08/14 02:53:12;;;;;;;1.23;1.10;;;21.20;85.50;;;;;;5074186;28;20072;-31
2023/08/14 02:55:38;;;;;;;1.00;0.90;;;21.00;85.30;;;;;;5074185;28;20493;-30
2023/08/14 02:58:05;;;;;;;1.13;0.88;;;22.40;85.90;;;;;;5073923;28;20131;-31
2023/08/14 03:00:32;;;;;;;0.95;0.90;;;20.90;74.10;;;;;;5073810;28;20132;-31
2023/08/14 03:02:58;;;;;;;1.10;1.00;;;20.70;85.90;;;;;;5073795;28;20135;-31
2023/08/14 03:05:25;;;;;;;2.20;0.90;;;21.40;86.20;;;;;;5074002;28;20127;-30
2023/08/14 03:07:52;;;;;;;1.20;0.93;;;;;;;;;;5073361;28;20181;-34
2023/08/14 03:10:22;;;;;;;2.38;1.00;;;21.20;68.70;;;;;;5073870;28;20139;-31
2023/08/14 03:12:49;;;;;;;1.25;0.90;;;;;;;;;;5073276;28;20048;-30
2023/08/14 03:15:16;;;;;;;0.93;0.90;;;;;;;;;;5074019;28;20131;-31
2023/08/14 03:17:43;;;;;;;0.80;0.80;;;21.00;85.30;;;;;;5073585;28;20132;-31
2023/08/14 03:20:10;;;;;;;1.27;0.80;;;20.40;85.10;;;;;;5073506;28;20460;-31
2023/08/14 03:22:37;;;;;;;1.33;0.90;;;21.70;84.50;;;;;;5073236;28;20090;-32
2023/08/14 03:25:04;;;;;;;1.58;1.02;;;22.40;85.70;;;;;;5063004;28;20088;-31
2023/08/14 03:27:32;;;;;;;1.20;0.90;;;21.10;68.70;;;;;;5053358;28;20528;-33
2023/08/14 03:29:59;;;;;;;0.90;0.90;;;;;;;;;;5053303;28;20136;-33
2023/08/14 03:32:26;;;;;;;2.35;1.10;;;;;;;;;;5053134;28;20131;-31
2023/08/14 03:34:53;;;;;;;1.15;0.90;;;;;;;;;;5053161;28;20469;-32
2023/08/14 03:37:20;;;;;;;0.80;0.80;;;20.70;85.10;;;;;;5065372;28;20127;-30
2023/08/14 03:39:46;;;;;;;0.85;0.85;;;21.20;85.90;;;;;;5073231;28;20123;-30
2023/08/14 03:42:13;;;;;;;1.90;1.15;;;21.10;78.20;;;;;;5059148;28;20131;-31
2023/08/14 03:44:41;;;;;;;1.20;0.98;;;22.30;86.20;;;;;;5060857;28;20124;-31
2023/08/14 03:47:08;;;;;;;0.88;0.88;;;21.20;76.60;;;;;;5072550;28;20059;-31
2023/08/14 03:49:35;;;;;;;1.85;1.00;;;20.90;85.00;;;;;;5073139;28;20076;-31
2023/08/14 03:52:02;;;;;;;1.08;0.90;;;21.80;77.50;;;;;;5072796;28;20490;-33
2023/08/14 03:54:29;;;;;;;1.00;0.90;;;;;;;;;;5072909;28;20127;-31
2023/08/14 03:56:56;;;;;;;1.63;1.08;;;;;;;;;;5072759;28;20131;-36
2023/08/14 03:59:22;;;;;;;1.50;1.00;;;20.90;85.30;;;;;;5071246;28;20123;-31
2023/08/14 04:01:50;;;;;;;0.85;0.80;;;20.70;86.00;;;;;;5073037;28;20134;-31
2023/08/14 04:04:17;;;;;;;1.20;1.10;;;20.20;84.70;;;;;;5072549;28;20079;-31
2023/08/14 04:06:47;;;;;;;1.20;1.10;;;;;;;;;;5072789;28;20143;-34
2023/08/14 04:09:14;;;;;;;2.10;1.20;;;;;;;;;;5072337;28;20052;-35
2023/08/14 04:11:40;;;;;;;0.90;0.82;;;20.60;85.80;;;;;;5072607;28;20119;-33
2023/08/14 04:14:07;;;;;;;2.28;1.10;;;21.50;75.60;;;;;;5072281;28;20131;-31
2023/08/14 04:16:43;;;;;;;1.17;1.08;;;;;;;;;;5055179;28;20158;-34
2023/08/14 04:19:13;;;;;;;1.52;1.05;;;21.20;74.30;;;;;;5052532;28;20049;-32
2023/08/14 04:21:39;;;;;;;2.33;1.00;;;20.80;72.80;;;;;;5052538;28;20136;-31
2023/08/14 04:24:07;;;;;;;3.47;1.20;;;21.00;68.60;;;;;;5052181;28;20129;-34
2023/08/14 04:26:34;;;;;;;1.73;1.15;;;21.10;85.40;;;;;;5052706;28;20077;-31
2023/08/14 04:29:00;;;;;;;1.00;0.80;;;21.00;71.30;;;;;;5052185;28;20045;-32
2023/08/14 04:31:28;;;;;;;1.40;1.10;;;;;;;;;;5052296;28;20135;-35
2023/08/14 04:33:55;;;;;;;1.10;1.00;;;;;;;;;;5053046;28;20144;-35
2023/08/14 04:36:23;;;;;;;1.10;1.00;;;20.90;85.20;;;;;;5055969;28;20044;-33
2023/08/14 04:38:50;;;;;;;1.27;1.00;;;;;;;;;;5072406;28;20132;-31
2023/08/14 04:41:17;;;;;;;1.10;1.00;;;;;;;;;;5072200;28;20133;-35
2023/08/14 04:43:43;;;;;;;1.85;1.10;;;20.60;85.10;;;;;;5071877;28;20072;-31
2023/08/14 04:46:11;;;;;;;1.80;1.10;;;20.50;85.10;;;;;;5072259;28;20548;-31
2023/08/14 04:48:38;;;;;;;1.30;1.20;;;;;;;;;;5070800;28;20090;-31
2023/08/14 04:51:05;;;;;;;1.05;0.95;;;;;;;;;;5052033;28;20073;-36
2023/08/14 04:53:33;;;;;;;1.50;1.10;;;21.40;85.60;;;;;;5052159;28;20128;-31
2023/08/14 04:56:00;;;;;;;2.42;1.40;;;;;;;;;;5051872;28;20470;-33
2023/08/14 04:58:27;;;;;;;1.50;1.15;;;;;;;;;;5051038;28;20561;-35
2023/08/14 05:00:54;;;;;;;1.40;1.13;;;21.70;85.70;;;;;;5071753;28;20155;-31
2023/08/14 05:03:21;;;;;;;1.35;1.10;;;20.80;78.10;;;;;;5071894;28;20127;-30
2023/08/14 05:05:51;;;;;;;1.33;1.23;;;21.00;68.60;;;;;;5068634;28;20190;-34
2023/08/14 05:08:18;;;;;;;1.55;1.20;;;20.90;80.50;;;;;;5063722;28;20037;-33
2023/08/14 05:10:49;;;;;;;2.22;1.30;;;20.30;84.70;;;;;;5070430;28;20135;-31
2023/08/14 05:13:16;;;;;;;1.85;1.45;;;20.80;82.30;;;;;;5071764;28;20127;-33
2023/08/14 05:15:43;;;;;;;1.10;1.00;;;20.40;84.70;;;;;;5071663;28;20131;-31
2023/08/14 05:18:10;;;;;;;1.30;1.20;;;;;;;;;;5071408;28;20502;-35
2023/08/14 05:20:37;;;;;;;1.48;1.17;;;;;;;;;;5071859;28;20480;-31
2023/08/14 05:23:04;;;;;;;1.10;1.00;;;21.40;82.50;;;;;;5064717;28;20139;-31
2023/08/14 05:25:30;;;;;;;1.92;1.15;;;20.60;85.70;;;;;;5051541;28;20577;-31
2023/08/14 05:27:59;;;;;;;1.60;1.40;;;20.90;85.30;;;;;;5052475;28;20129;-31
2023/08/14 05:30:25;;;;;;;1.63;1.17;;;20.00;84.80;;;;;;5061187;28;20137;-30
2023/08/14 05:32:52;;;;;;;2.10;1.33;;;;;;;;;;5055112;28;20052;-32
2023/08/14 05:35:23;;;;;;;1.30;1.20;;;20.70;85.70;;;;;;5051472;28;20135;-30
2023/08/14 05:37:52;;;;;;;1.27;1.10;;;20.70;85.80;;;;;;5067837;28;20060;-31
2023/08/14 05:40:19;;;;;;;2.78;1.10;;;;;;;;;;5071455;28;20079;-36
2023/08/14 05:42:49;;;;;;;1.83;1.50;;;21.00;79.20;;;;;;5066827;28;20080;-34
2023/08/14 05:45:17;;;;;;;1.67;1.20;;;22.00;85.70;;;;;;5051320;28;20045;-32
2023/08/14 05:47:44;;;;;;;1.30;1.17;;;20.70;85.50;;;;;;5051606;28;20111;-31
2023/08/14 05:50:11;;;;;;;1.40;1.30;;;;;;;;;;5051035;28;20487;-36
2023/08/14 05:52:38;;;;;;;1.20;1.10;;;20.50;76.00;;;;;;5051251;28;20132;-37
2023/08/14 05:55:06;;;;;;;1.15;1.05;;;20.80;85.80;;;;;;5051343;28;20124;-37
2023/08/14 05:57:32;;;;;;;1.55;1.30;;;21.00;85.20;;;;;;5051133;28;20053;-38
2023/08/14 05:59:59;;;;;;;1.52;1.23;;;;;;;;;;5064149;28;20464;-33
2023/08/14 06:02:27;;;;;;;1.58;1.17;;;20.60;85.70;;;;;;5071309;28;20198;-39
2023/08/14 06:04:54;;;;;;;1.85;1.20;;;20.60;85.80;;;;;;5071302;28;20402;-37
2023/08/14 06:07:21;;;;;;;1.73;1.30;;;20.80;85.40;;;;;;5071428;28;20139;-39
2023/08/14 06:09:48;;;;;;;1.38;1.20;;;;;;;;;;5074332;28;20472;-37
2023/08/14 06:12:14;;;;;;;1.33;1.23;;;21.00;85.20;;;;;;5065470;28;20145;-37
2023/08/14 06:14:42;;;;;;;1.48;1.20;;;;;;;;;;5055042;28;20129;-37
2023/08/14 06:17:09;;;;;;;1.55;1.30;;;21.00;85.30;;;;;;5055330;28;20087;-38
2023/08/14 06:19:37;;;;;;;3.67;1.40;;;21.00;68.80;;;;;;5054652;28;20518;-34
2023/08/14 06:22:05;;;;;;;2.13;1.30;;;;;;;;;;5055900;28;20123;-35
2023/08/14 06:24:31;;;;;;;1.52;1.30;;;21.10;85.30;;;;;;5069199;28;20045;-39
2023/08/14 06:26:58;;;;;;;3.13;1.30;;;21.10;72.30;;;;;;5065342;28;20127;-36
2023/08/14 06:29:25;;;;;;;1.58;1.25;;;21.00;85.90;;;;;;5064627;28;20128;-36
2023/08/14 06:31:51;;;;;;;1.33;1.20;;;21.80;70.50;;;;;;5063151;28;20132;-37
2023/08/14 06:34:18;;;;;;;1.73;1.30;;;21.10;69.40;;;;;;5059473;28;20167;-37
2023/08/14 06:36:46;;;;;;;1.15;1.02;;;21.40;86.70;;;;;;5061901;28;20127;-38
2023/08/14 06:39:13;;;;;;;2.35;1.27;;;20.50;85.20;;;;;;5070856;28;20124;-38
2023/08/14 06:41:40;;;;;;;1.35;1.20;;;21.20;86.00;;;;;;5062468;28;20127;-39
2023/08/14 06:44:08;;;;;;;1.50;1.30;;;21.40;72.40;;;;;;5064074;28;20123;-37
2023/08/14 06:46:35;;;;;;;1.48;1.30;;;21.00;80.50;;;;;;5060112;28;20057;-32
2023/08/14 06:49:02;;;;;;;1.95;1.27;;;21.00;86.50;;;;;;5059985;28;20375;-37
2023/08/14 06:51:29;;;;;;;2.05;1.35;;;;;;;;;;5058454;28;20130;-37
2023/08/14 06:53:57;;;;;;;1.40;1.30;;;21.00;85.70;;;;;;5064753;28;20128;-35
2023/08/14 06:56:23;;;;;;;2.63;1.35;;;21.20;85.80;;;;;;5062075;28;20127;-34
2023/08/14 06:58:50;;;;;;;2.00;1.20;;;20.90;85.50;;;;;;5065151;28;20536;-38
2023/08/14 07:01:17;;;;;;;3.10;1.30;;;;;;;;;;5062306;28;20504;-36
2023/08/14 07:03:44;;;;;;;1.60;1.30;;;21.70;85.60;;;;;;5062336;28;20124;-38
2023/08/14 07:06:11;;;;;;;1.98;1.42;;;22.20;86.80;;;;;;5063019;28;20124;-34
2023/08/14 07:08:38;;;;;;;1.55;1.20;;;21.10;78.60;;;;;;5063248;28;20124;-38
2023/08/14 07:11:06;;;;;;;2.10;1.30;;;21.60;86.40;;;;;;5062568;28;20586;-38
2023/08/14 07:13:33;;;;;;;1.40;1.30;;;21.10;85.50;;;;;;5063895;28;20136;-37
2023/08/14 07:16:00;;;;;;;1.48;1.20;;;20.60;74.60;;;;;;5074160;28;20083;-36
2023/08/14 07:18:27;;;;;;;2.63;1.42;;;;;;;;;;5062060;28;20120;-36
2023/08/14 07:20:56;;;;;;;1.55;1.33;;;;;;;;;;5055269;28;20132;-33
2023/08/14 07:23:23;;;;;;;1.42;1.20;;;22.30;79.80;;;;;;5060573;28;20552;-37
2023/08/14 07:25:50;;;;;;;1.50;1.35;;;21.70;75.30;;;;;;5062394;28;20051;-35
2023/08/14 07:28:18;;;;;;;2.22;1.30;;;20.90;85.90;;;;;;5055221;28;20063;-38
2023/08/14 07:30:45;;;;;;;3.42;1.48;;;20.50;85.70;;;;;;5053676;28;20529;-36
2023/08/14 07:33:13;;;;;;;1.70;1.40;;;;;;;;;;5053302;28;20080;-35
2023/08/14 07:35:41;;;;;;;1.75;1.27;;;;;;;;;;5053621;28;20049;-36
2023/08/14 07:38:08;;;;;;;1.77;1.23;;;21.20;85.50;;;;;;5060588;28;20045;-38
2023/08/14 07:40:34;;;;;;;3.33;1.30;;;20.80;80.10;;;;;;5064313;28;20044;-38
2023/08/14 07:43:01;;;;;;;2.47;1.50;;;21.20;85.90;;;;;;5062742;28;20052;-36
2023/08/14 07:45:29;;;;;;;1.70;1.40;;;20.80;74.20;;;;;;5059343;28;20124;-37
2023/08/14 07:47:56;;;;;;;2.05;1.30;;;20.10;84.80;;;;;;5061271;28;20076;-35
2023/08/14 07:50:23;;;;;;;3.22;1.33;;;21.50;75.30;;;;;;5072845;28;20119;-33
2023/08/14 07:52:49;;;;;;;3.22;1.35;;;21.70;86.20;;;;;;5071680;28;20051;-39
2023/08/14 07:55:16;;;;;;;3.28;1.45;;;21.30;86.00;;;;;;5053055;28;20565;-40
2023/08/14 07:57:45;;;;;;;4.28;1.30;;;20.30;70.90;;;;;;5060681;28;20072;-35
2023/08/14 08:00:15;;;;;;;2.17;1.45;;;21.30;86.40;;;;;;5065792;28;20052;-39
2023/08/14 08:02:43;;;;;;;1.55;1.38;;;21.10;85.70;;;;;;5068937;28;20054;-35
2023/08/14 08:05:10;;;;;;;2.08;1.60;;;;;;;;;;5093446;28;20043;-38
2023/08/14 08:07:37;;;;;;;3.95;1.27;;;;;;;;;;5074233;28;20127;-33
2023/08/14 08:10:04;;;;;;;2.50;1.40;;;21.80;87.10;;;;;;5069550;28;20139;-37
2023/08/14 08:12:31;;;;;;;3.17;1.30;;;;;;;;;;5052177;28;20472;-37
2023/08/14 08:14:58;;;;;;;6.30;1.30;;;20.70;86.20;;;;;;5051704;28;20469;-36
2023/08/14 08:17:25;;;;;;;2.28;1.25;;;21.20;86.10;;;;;;5052075;28;20128;-37
2023/08/14 08:19:53;;;;;;;2.85;1.45;;;21.10;77.70;;;;;;5052495;28;20571;-36
2023/08/14 08:22:20;;;;;;;1.30;1.05;;;21.10;75.70;;;;;;5052408;28;20157;-34
2023/08/14 08:24:47;;;;;;;1.55;1.20;;;21.40;86.10;;;;;;5052624;28;20581;-35
2023/08/14 08:27:14;;;;;;;1.33;1.00;;;;;;;;;;5052398;28;20141;-36
2023/08/14 08:29:41;;;;;;;2.03;1.30;;;22.40;86.60;;;;;;5052217;28;20128;-38
2023/08/14 08:32:08;;;;;;;1.15;1.05;;;21.50;86.50;;;;;;5051760;28;20123;-36
2023/08/14 08:34:34;;;;;;;1.30;1.10;;;21.50;85.60;;;;;;5052138;28;20053;-37
2023/08/14 08:37:02;;;;;;;1.80;1.30;;;21.30;85.40;;;;;;5061917;28;20557;-35
2023/08/14 08:39:29;;;;;;;4.43;1.38;;;21.00;85.00;;;;;;5072083;28;20544;-39
2023/08/14 08:41:57;;;;;;;1.88;1.20;;;21.60;68.60;;;;;;5072088;28;20079;-35
2023/08/14 08:44:25;;;;;;;1.20;1.10;;;21.40;75.50;;;;;;5071927;28;20132;-39
2023/08/14 08:46:53;;;;;;;1.20;1.10;;;22.20;68.90;;;;;;5071139;28;20497;-37
2023/08/14 08:49:20;;;;;;;1.83;1.17;;;;;;;;;;5072077;28;20613;-37
2023/08/14 08:51:47;;;;;;;1.83;1.23;;;21.90;84.60;;;;;;5072032;28;20470;-35
2023/08/14 08:54:15;;;;;;;1.15;0.95;;;21.90;84.10;;;;;;5071785;28;20078;-39
2023/08/14 08:56:42;;;;;;;1.58;1.00;;;22.80;84.10;;;;;;5072161;28;20131;-37
2023/08/14 08:59:09;;;;;;;1.60;1.00;;;21.90;67.70;;;;;;5067412;28;20124;-34
2023/08/14 09:01:35;;;;;;;1.60;1.00;;;21.30;83.80;;;;;;5060537;28;20051;-36
2023/08/14 09:04:02;;;;;;;1.17;1.08;;;21.90;84.30;;;;;;5071783;28;20487;-37
2023/08/14 09:06:29;;;;;;;1.75;1.20;;;23.30;72.00;;;;;;5071794;28;20497;-34
2023/08/14 09:08:56;;;;;;;1.20;1.02;;;21.30;82.90;;;;;;5068122;28;20131;-35
2023/08/14 09:11:24;;;;;;;1.80;1.00;;;22.10;84.20;;;;;;5071437;28;20128;-36
2023/08/14 09:13:50;;;;;;;2.22;1.00;;;21.20;82.50;;;;;;5071966;28;20060;-38
2023/08/14 09:16:18;;;;;;;1.85;1.20;;;;;;;;;;5060006;28;20120;-34
2023/08/14 09:18:45;;;;;;;1.20;1.10;;;23.30;84.30;;;;;;5066034;28;20075;-36
2023/08/14 09:21:12;;;;;;;1.73;1.10;;;21.40;76.30;;;;;;5071569;28;20131;-35
2023/08/14 09:23:39;;;;;;;0.98;0.90;;;22.10;83.00;;;;;;5056709;28;20125;-40
2023/08/14 09:26:06;;;;;;;1.40;1.00;;;;;;;;;;5051715;28;20135;-35
2023/08/14 09:28:34;;;;;;;1.50;1.00;;;22.30;83.50;;;;;;5051266;28;20582;-39
2023/08/14 09:31:07;;;;;;;2.47;1.00;;;23.50;83.30;;;;;;5062073;28;20127;-37
2023/08/14 09:33:34;;;;;;;2.20;1.10;;;20.90;65.70;;;;;;5054144;28;20049;-32
2023/08/14 09:36:00;;;;;;;1.48;1.10;;;22.40;82.30;;;;;;5059659;28;20128;-32
2023/08/14 09:38:28;;;;;;;1.73;1.10;;;22.50;66.50;;;;;;5061521;28;20597;-31
2023/08/14 09:40:57;;;;;;;1.40;1.17;;;22.00;82.50;;;;;;5057970;28;20080;-31
2023/08/14 09:43:23;;;;;;;1.80;1.13;;;22.10;83.00;;;;;;5061801;28;20051;-31
2023/08/14 09:45:52;;;;;;;1.92;1.27;;;24.00;75.00;;;;;;5066124;28;20561;-31
2023/08/14 09:48:19;;;;;;;2.08;1.10;;;22.00;83.00;;;;;;5054946;28;20118;-33
2023/08/14 09:50:49;;;;;;;1.20;1.00;;;22.40;81.80;;;;;;5061461;28;20044;-31
2023/08/14 09:53:15;;;;;;;1.63;1.10;;;22.40;83.10;;;;;;5066121;28;20131;-32
2023/08/14 09:55:42;;;;;;;2.33;1.10;;;22.70;66.00;;;;;;5065052;28;20515;-36
2023/08/14 09:58:09;;;;;;;1.63;1.10;;;23.60;83.60;;;;;;5064201;28;20124;-31
2023/08/14 10:00:37;;;;;;;1.38;1.10;;;22.70;82.60;;;;;;5072764;28;20131;-32
2023/08/14 10:03:07;;;;;;;1.25;1.00;;;23.10;83.20;;;;;;5075270;28;20136;-31
2023/08/14 10:05:34;;;;;;;2.95;1.10;;;22.80;83.10;;;;;;5063152;28;20080;-31
2023/08/14 10:08:01;;;;;;;2.15;1.10;;;22.90;65.90;;;;;;5055507;28;20045;-34
2023/08/14 10:10:29;;;;;;;2.88;1.08;;;22.80;82.10;;;;;;5055105;28;20120;-32
2023/08/14 10:12:58;;;;;;;2.60;0.90;;;23.20;83.10;;;;;;5054702;28;20127;-30
2023/08/14 10:15:26;;;;;;;1.40;1.10;;;22.50;81.90;;;;;;5060304;28;20128;-32
2023/08/14 10:17:56;;;;;;;1.33;1.23;;;23.20;66.70;;;;;;5060130;28;20053;-33
2023/08/14 10:20:24;;;;;;;2.42;1.10;;;23.00;65.80;;;;;;5062894;28;20127;-35
2023/08/14 10:22:52;;;;;;;1.30;1.13;;;;;;;;;;5064672;28;20068;-35
2023/08/14 10:25:19;;;;;;;2.50;1.00;;;23.40;82.20;;;;;;5062302;28;20044;-30
2023/08/14 10:27:46;;;;;;;1.95;1.17;;;22.50;81.80;;;;;;5057169;28;20132;-31
2023/08/14 10:30:13;;;;;;;1.52;0.95;;;;;;;;;;5063780;28;20116;-32
2023/08/14 10:32:40;;;;;;;1.88;1.15;;;23.30;78.60;;;;;;5055581;28;20513;-33
2023/08/14 10:35:08;;;;;;;1.58;1.20;;;23.30;66.50;;;;;;5064136;28;20119;-33
2023/08/14 10:37:42;;;;;;;2.05;1.20;;;23.00;81.80;;;;;;5062213;28;20140;-36
2023/08/14 10:40:16;;;;;;;2.35;1.00;;;23.10;76.50;;;;;;5053479;28;20128;-38
2023/08/14 10:42:45;;;;;;;1.58;1.10;;;24.20;66.20;;;;;;5053521;28;20509;-36
2023/08/14 10:45:12;;;;;;;2.63;1.10;;;23.40;67.20;;;;;;5054500;28;20120;-39
2023/08/14 10:47:38;;;;;;;1.55;1.15;;;24.50;76.90;;;;;;5063700;28;20128;-35
2023/08/14 10:50:13;;;;;;;4.03;1.42;;;23.10;81.80;;;;;;5072923;28;20052;-38
2023/08/14 10:52:43;;;;;;;2.42;1.10;;;23.50;66.60;;;;;;5074193;28;20049;-36
2023/08/14 10:55:15;;;;;;;1.98;1.20;;;24.50;82.50;;;;;;5054424;28;20546;-39
2023/08/14 10:57:42;;;;;;;1.77;0.98;;;22.50;81.40;;;;;;5054228;28;20497;-38
2023/08/14 11:00:19;;;;;;;1.65;1.27;;;23.20;65.70;;;;;;5067932;28;20467;-34
2023/08/14 11:02:50;;;;;;;1.40;1.15;;;23.30;65.80;;;;;;5074070;28;20053;-33
2023/08/14 11:05:17;;;;;;;1.60;1.13;;;23.50;77.30;;;;;;5074028;28;20049;-37
2023/08/14 11:07:56;;;;;;;1.90;1.15;;;22.90;82.00;;;;;;5074054;28;20310;-31
2023/08/14 11:10:24;;;;;;;1.45;1.02;;;23.10;79.70;;;;;;5066397;28;20413;-30
2023/08/14 11:12:51;;;;;;;3.17;1.30;;;23.30;65.80;;;;;;5065257;28;20128;-34
2023/08/14 11:15:19;;;;;;;2.25;1.20;;;22.60;82.40;;;;;;5053784;28;20473;-32
2023/08/14 11:17:46;;;;;;;3.97;1.13;;;23.30;81.90;;;;;;5053899;28;20474;-31
2023/08/14 11:20:13;;;;;;;2.17;1.20;;;23.20;81.80;;;;;;5053741;28;20123;-31
2023/08/14 11:22:43;;;;;;;2.55;1.20;;;23.20;76.60;;;;;;5053294;28;20136;-32
2023/08/14 11:25:13;;;;;;;1.17;0.98;;;22.70;81.80;;;;;;5053646;28;20124;-31
2023/08/14 11:27:39;;;;;;;2.20;1.27;;;23.10;75.90;;;;;;5055328;28;20132;-32
2023/08/14 11:30:07;;;;;;;1.40;1.10;;;23.30;82.50;;;;;;5053871;28;20136;-32
2023/08/14 11:32:34;;;;;;;1.20;1.05;;;23.40;71.00;;;;;;5057023;28;20132;-31
2023/08/14 11:35:01;;;;;;;2.90;1.30;;;23.30;81.50;;;;;;5062508;28;20123;-31
2023/08/14 11:37:28;;;;;;;2.88;1.10;;;;;;;;;;5057100;28;20140;-34
2023/08/14 11:39:55;;;;;;;4.38;1.20;;;23.30;81.30;;;;;;5059530;28;20123;-31
2023/08/14 11:42:23;;;;;;;1.48;1.08;;;23.40;65.80;;;;;;5069781;28;20136;-35
2023/08/14 11:44:50;;;;;;;2.22;1.27;;;;;;;;;;5066143;28;20128;-30
2023/08/14 11:47:16;;;;;;;2.00;1.15;;;24.50;82.40;;;;;;5053347;28;20143;-32
2023/08/14 11:49:43;;;;;;;1.90;1.02;;;23.40;81.60;;;;;;5067183;28;20106;-32
2023/08/14 11:52:11;;;;;;;1.80;1.20;;;;;;;;;;5064919;28;20128;-35
2023/08/14 11:54:37;;;;;;;1.75;1.17;;;23.30;81.80;;;;;;5055831;28;20056;-31
2023/08/14 11:57:05;;;;;;;1.95;1.27;;;;;;;;;;5053259;28;20132;-35
2023/08/14 11:59:33;;;;;;;2.28;1.20;;;24.70;82.20;;;;;;5061728;28;20109;-32
2023/08/14 12:02:00;;;;;;;2.00;1.20;;;24.60;82.80;;;;;;5072581;28;20131;-30
2023/08/14 12:04:27;;;;;;;2.40;1.30;;;22.60;77.90;;;;;;5072687;28;20131;-34
2023/08/14 12:06:55;;;;;;;2.58;1.20;;;23.80;82.40;;;;;;5067806;28;20128;-32
2023/08/14 12:09:25;;;;;;;1.38;1.10;;;22.90;75.90;;;;;;5053207;28;20144;-31
2023/08/14 12:11:52;;;;;;;1.80;1.10;;;23.30;81.90;;;;;;5066841;28;20052;-31
2023/08/14 12:14:18;;;;;;;1.45;1.00;;;22.50;81.10;;;;;;5071841;28;20737;-32
2023/08/14 12:16:46;;;;;;;1.13;1.00;;;23.40;72.50;;;;;;5072380;28;20131;-32
2023/08/14 12:19:13;;;;;;;1.83;1.20;;;23.30;74.30;;;;;;5061107;28;20473;-32
2023/08/14 12:21:40;;;;;;;1.63;1.02;;;23.10;82.00;;;;;;5057726;28;20044;-37
2023/08/14 12:24:07;;;;;;;1.08;0.98;;;23.20;82.10;;;;;;5061801;28;20132;-40
2023/08/14 12:26:39;;;;;;;1.25;1.10;;;23.30;70.80;;;;;;5052540;28;20091;-37
2023/08/14 12:29:06;;;;;;;1.33;1.10;;;23.40;81.60;;;;;;5052513;28;20049;-38
2023/08/14 12:31:33;;;;;;;2.40;1.10;;;23.40;81.90;;;;;;5060188;28;20472;-38
2023/08/14 12:34:01;;;;;;;1.83;1.48;;;23.30;68.10;;;;;;5071921;28;20045;-35
2023/08/14 12:36:27;;;;;;;1.58;1.00;;;23.30;68.30;;;;;;5070247;28;20127;-36
2023/08/14 12:38:54;;;;;;;1.02;0.93;;;23.20;81.60;;;;;;5070391;28;20587;-40
2023/08/14 12:41:21;;;;;;;1.70;1.10;;;23.20;82.50;;;;;;5072090;28;20143;-36
2023/08/14 12:43:47;;;;;;;1.77;1.10;;;;;;;;;;5066032;28;20460;-37
2023/08/14 12:46:15;;;;;;;2.38;0.90;;;23.30;81.90;;;;;;5058988;28;20480;-39
2023/08/14 12:48:42;;;;;;;1.88;1.10;;;;;;;;;;5061545;28;20127;-35
2023/08/14 12:51:10;;;;;;;1.50;1.20;;;23.30;81.80;;;;;;5061880;28;20047;-38
2023/08/14 12:53:37;;;;;;;1.50;1.20;;;24.10;82.50;;;;;;5061460;28;20161;-35
2023/08/14 12:56:04;;;;;;;1.45;1.00;;;23.30;76.00;;;;;;5067246;28;20072;-39
2023/08/14 12:58:30;;;;;;;1.98;1.20;;;23.50;80.20;;;;;;5060602;28;20127;-36
2023/08/14 13:00:58;;;;;;;1.50;1.17;;;;;;;;;;5062874;28;20053;-35
2023/08/14 13:03:25;;;;;;;1.10;1.00;;;23.40;68.50;;;;;;5060442;28;20084;-35
2023/08/14 13:05:51;;;;;;;1.65;1.10;;;24.10;82.70;;;;;;5061258;28;20098;-30